createdAt,value
2022-12-19T00:05:33.334Z,0
2022-12-19T00:11:56.474Z,0
2022-12-19T00:18:16.656Z,0
2022-12-19T00:24:39.427Z,0
2022-12-19T00:30:59.351Z,0
2022-12-19T00:37:22.484Z,0
2022-12-19T00:43:42.342Z,0
2022-12-19T00:50:05.632Z,0
2022-12-19T00:56:25.754Z,0
2022-12-19T01:02:48.565Z,0
2022-12-19T01:09:08.329Z,0
2022-12-19T01:15:31.511Z,0
2022-12-19T01:21:51.431Z,0
2022-12-19T01:28:14.385Z,0
2022-12-19T01:34:34.557Z,0
2022-12-19T01:40:57.338Z,0
2022-12-19T01:47:17.359Z,0
2022-12-19T01:53:49.097Z,0
2022-12-19T02:00:00.492Z,0
2022-12-19T02:06:23.370Z,0
2022-12-19T02:12:43.539Z,0
2022-12-19T02:19:06.405Z,0
2022-12-19T02:25:26.551Z,0
2022-12-19T02:31:49.627Z,0
2022-12-19T02:38:09.429Z,0
2022-12-19T02:44:32.362Z,0
2022-12-19T02:50:52.463Z,0
2022-12-19T02:57:15.491Z,0
2022-12-19T03:03:35.561Z,0
2022-12-19T03:09:58.552Z,0
2022-12-19T03:16:18.552Z,0
2022-12-19T03:22:41.366Z,0
2022-12-19T03:29:01.586Z,0
2022-12-19T03:35:24.571Z,0
2022-12-19T03:41:44.507Z,0
2022-12-19T03:48:07.471Z,0
2022-12-19T03:54:27.569Z,0
2022-12-19T04:00:50.369Z,0
2022-12-19T04:24:14.473Z,0
2022-12-19T04:30:36.579Z,0
2022-12-19T04:36:57.350Z,0
2022-12-19T04:43:17.471Z,0
2022-12-19T04:49:40.381Z,0
2022-12-19T04:56:00.476Z,0
2022-12-19T05:02:23.821Z,0
2022-12-19T05:08:43.330Z,0
2022-12-19T05:15:06.366Z,0
2022-12-19T05:21:26.497Z,0
2022-12-19T05:27:49.337Z,0
2022-12-19T05:34:09.414Z,0
2022-12-19T05:40:32.647Z,0
2022-12-19T05:46:52.487Z,0
2022-12-19T05:53:15.423Z,0
2022-12-19T05:59:35.476Z,0
2022-12-19T06:05:58.478Z,0
2022-12-19T06:12:18.323Z,0
2022-12-19T06:18:44.409Z,0
2022-12-19T06:25:01.368Z,0
2022-12-19T06:31:24.599Z,0
2022-12-19T06:37:44.604Z,0
2022-12-19T06:44:07.445Z,0
2022-12-19T06:50:27.492Z,0
2022-12-19T06:56:50.511Z,0
2022-12-19T07:03:10.397Z,0
2022-12-19T07:09:33.391Z,0
2022-12-19T07:15:53.469Z,3
2022-12-19T07:22:16.474Z,6
2022-12-19T07:28:36.478Z,8
2022-12-19T07:34:59.499Z,12
2022-12-19T07:41:19.366Z,20
2022-12-19T07:47:42.374Z,30
2022-12-19T07:54:02.556Z,41
2022-12-19T08:00:25.389Z,56
2022-12-19T08:06:45.328Z,67
2022-12-19T08:13:08.543Z,97
2022-12-19T08:19:28.350Z,116
2022-12-19T08:25:51.408Z,118
2022-12-19T08:32:14.426Z,155
2022-12-19T08:38:34.333Z,170
2022-12-19T08:44:54.463Z,178
2022-12-19T08:51:17.517Z,279
2022-12-19T08:57:37.459Z,380
2022-12-19T09:04:34.807Z,312
2022-12-19T09:10:20.464Z,478
2022-12-19T09:16:43.509Z,466
2022-12-19T09:32:32.420Z,444
2022-12-19T09:38:52.383Z,378
2022-12-19T09:45:18.032Z,333
2022-12-19T09:51:35.593Z,331
2022-12-19T09:57:58.431Z,356
2022-12-19T10:04:18.401Z,428
2022-12-19T10:12:05.581Z,486
2022-12-19T10:17:23.491Z,498
2022-12-19T10:23:24.476Z,525
2022-12-19T10:29:44.463Z,618
2022-12-19T10:36:07.383Z,554
2022-12-19T10:42:27.519Z,1039
2022-12-19T10:48:50.548Z,1540
2022-12-19T10:55:10.638Z,1609
2022-12-19T11:01:33.735Z,1182
2022-12-19T11:07:53.464Z,636
2022-12-19T11:17:01.469Z,872
2022-12-19T11:25:14.627Z,1045
2022-12-19T11:29:29.380Z,800
2022-12-19T11:33:19.552Z,599
2022-12-19T11:39:42.419Z,594
2022-12-19T11:46:02.472Z,587
2022-12-19T11:58:45.358Z,1034
2022-12-19T12:05:08.584Z,1143
2022-12-19T12:15:19.078Z,1075
2022-12-19T12:22:43.476Z,1050
2022-12-19T12:31:33.761Z,1060
2022-12-19T12:31:34.373Z,1165
2022-12-19T12:43:17.540Z,1360
2022-12-19T12:49:37.336Z,1214
2022-12-19T12:56:00.415Z,1106
2022-12-19T13:02:20.729Z,1045
2022-12-19T13:08:43.443Z,1194
2022-12-19T13:15:03.446Z,1239
2022-12-19T13:21:26.577Z,1395
2022-12-19T13:27:46.458Z,1386
2022-12-19T13:34:09.371Z,1174
2022-12-19T13:40:32.622Z,1030
2022-12-19T13:46:52.590Z,960
2022-12-19T13:53:12.472Z,860
2022-12-19T13:59:35.464Z,752
2022-12-19T14:06:15.484Z,676
2022-12-19T14:12:27.671Z,620
2022-12-19T14:36:05.657Z,457
2022-12-19T14:41:45.390Z,413
2022-12-19T14:51:52.029Z,305
2022-12-19T15:01:08.832Z,125
2022-12-19T15:07:12.606Z,77
2022-12-19T15:14:49.923Z,38
2022-12-19T15:19:54.396Z,29
2022-12-19T15:26:17.512Z,19
2022-12-19T15:32:37.918Z,11
2022-12-19T15:39:01.435Z,6
2022-12-19T15:45:21.702Z,3
2022-12-19T15:51:44.580Z,1
2022-12-19T15:58:04.501Z,0
2022-12-19T16:04:27.868Z,0
2022-12-19T16:10:47.373Z,0
2022-12-19T16:17:11.356Z,0
2022-12-19T16:23:31.383Z,0
2022-12-19T16:29:54.392Z,0
2022-12-19T16:36:14.375Z,0
2022-12-19T16:42:37.346Z,0
2022-12-19T16:48:57.424Z,0
2022-12-19T16:55:20.419Z,0
2022-12-19T17:01:40.557Z,0
2022-12-19T17:08:03.408Z,0
2022-12-19T17:14:23.477Z,0
2022-12-19T17:20:46.338Z,0
2022-12-19T17:27:06.387Z,0
2022-12-19T17:33:29.344Z,0
2022-12-19T17:39:49.369Z,0
2022-12-19T17:46:12.508Z,0
2022-12-19T17:52:32.572Z,0
2022-12-19T17:58:55.440Z,0
2022-12-19T18:05:15.431Z,0
2022-12-19T18:11:42.031Z,0
2022-12-19T18:17:58.374Z,0
2022-12-19T18:24:21.738Z,0
2022-12-19T18:30:41.374Z,0
2022-12-19T18:37:04.486Z,0
2022-12-19T18:43:24.485Z,0
2022-12-19T18:49:47.329Z,0
2022-12-19T18:56:07.358Z,0
2022-12-19T19:02:30.709Z,0
2022-12-19T19:08:50.385Z,0
2022-12-19T19:15:13.493Z,0
2022-12-19T19:31:39.078Z,0
2022-12-19T19:38:01.843Z,0
2022-12-19T19:44:21.381Z,0
2022-12-19T19:50:44.456Z,0
2022-12-19T19:57:04.343Z,0
2022-12-19T20:03:27.572Z,0
2022-12-19T20:09:47.362Z,0
2022-12-19T20:16:10.412Z,0
2022-12-19T20:22:30.467Z,0
2022-12-19T20:28:53.439Z,0
2022-12-19T20:35:14.940Z,0
2022-12-19T20:41:36.432Z,0
2022-12-19T20:47:56.408Z,0
2022-12-19T20:54:19.396Z,0
2022-12-19T21:00:39.391Z,0
2022-12-19T21:07:02.411Z,0
2022-12-19T21:13:22.452Z,0
2022-12-19T21:19:45.383Z,0
2022-12-19T21:26:05.387Z,0
2022-12-19T21:32:28.442Z,0
2022-12-19T21:38:48.404Z,0
2022-12-19T21:45:11.461Z,0
2022-12-19T21:51:31.409Z,0
2022-12-19T21:57:54.336Z,0
2022-12-19T22:04:14.389Z,0
2022-12-19T22:10:37.515Z,0
2022-12-19T22:16:57.515Z,0
2022-12-19T22:23:20.509Z,0
2022-12-19T22:29:40.344Z,0
2022-12-19T22:36:03.509Z,0
2022-12-19T22:42:23.457Z,0
2022-12-19T22:48:46.435Z,0
2022-12-19T22:55:06.428Z,0
2022-12-19T23:20:41.409Z,0
2022-12-19T23:27:01.325Z,0
2022-12-19T23:33:24.388Z,0
2022-12-19T23:39:44.504Z,0
2022-12-19T23:46:07.565Z,0
2022-12-19T23:52:27.415Z,0
2022-12-19T23:58:50.377Z,0
